Heisson, Washington
Current Conditions -  °F | °C
As of 7:53 PM on Tuesday 21 Oct 2014 (Local Time) from KVUO Reporting Station
Overcast Overcast  
Wind Chill: 59°   Ceiling: 6500
Heat Index: 59°   Visibility: 10mi
Dew Point: 50°   Wind: 12mph
Humidity: 72%   Direction: 120°ESE
Pressure: 29.9"   Gusts: NA
Location:  45.82°N, 122.49°W
Report Text: KVUO 220253Z AUTO 12010KT 10SM OVC065 15/10 A2990 RMK AO2 SLP123 T01500100 58019
Loading
Personal Weather Stations






























Interactive Weather Map
Tropical Storm Tracking
New forecast layout! Learn more

10-Day Weather Forecast

Advertisements
Track Severe Weather on mobile